Melvin, IA

9:51 AM CDT on May 06, 2015 (GMT -0500)
Worthington Municipal | | Change Station
CLOSE
Current Station
Airport
Location: Worthington,
Elevation: 1575 ft
Nearby Weather Stations

Elev 1575 ft 43.66 °N, 95.58 °W | Updated 16 minutes ago

Overcast
Overcast
63 °F
Feels Like 63 °F
N
21
Wind Variable Wind from ESE

Today
High -- | Low -- °F
--% Chance of Precip.
Yesterday
High -- | Low -- °F
Precip. -- in
6:09 AM 8:29 PM
Waning Gibbous, 94% visible
Pressure 29.93 in
Visibility 4.0 miles
Clouds Overcast 800 ft
Dew Point 57 °F
Humidity 82%
Rainfall 0.00 in
Snow Depth Not available.
UV 1 out of 12
Pollen 7.20 out of 12
Air Quality Not available.
Flu Activity Local Activity
METAR KOTG 061435Z AUTO 12018KT 4SM OVC008 17/14 A2993 RMK AO1

More Conditions Fewer Conditions

Pressure 29.93 in
Visibility 4.0 miles
Clouds Overcast 800 ft
Dew Point 57 °F
Humidity 82%
Rainfall 0.00 in
Snow Depth Not available.
UV 1 out of 12
Pollen 7.20 out of 12
Air Quality Not available.
Flu Activity Local Activity
METAR KOTG 061435Z AUTO 12018KT 4SM OVC008 17/14 A2993 RMK AO1

More Conditions Fewer Conditions

10-Day Weather Forecast

Almanac

Astronomy

May. 06, 2015 Rise Set
Actual Time
Civil Twilight
Nautical Twilight
Astronomical Twilight
Moon
Length of Visible Light
Length of Day
Tomorrow will be .
, % of the Moon is Illuminated

Today's Extremes

State Highs State Lows

Community

WunderPhotos

Upload Photos

1,818,920 photos uploaded!

WunderBlogs® & News

Nearby

Air Quality

  Air Quality AQ Index Pollutant
Not available.

Snow Depth

Station Depth Elevation

Earthquake Activity

City Distance Mag. Time & Date
Minimum magnitude displayed is 2.5.

Coastal Water Temperatures

Place Temperature

Stations

Nearby Weather Stations

Station Location Temp. Windchill Dew Point Humidity Wind Precip. Elev Updated Type